createdAt,value
2022-12-18T00:02:02.251Z,-2.83
2022-12-18T00:04:33.049Z,-2.84
2022-12-18T00:07:04.003Z,-2.77
2022-12-18T00:09:39.189Z,-2.69
2022-12-18T00:14:46.745Z,-2.56
2022-12-18T00:17:17.230Z,-2.60
2022-12-18T00:19:47.646Z,-2.61
2022-12-18T00:22:25.793Z,-2.65
2022-12-18T00:24:56.247Z,-2.68
2022-12-18T00:27:26.716Z,-2.75
2022-12-18T00:29:57.297Z,-2.78
2022-12-18T00:32:27.825Z,-2.78
2022-12-18T00:34:58.246Z,-2.78
2022-12-18T00:37:28.685Z,-2.80
2022-12-18T00:39:59.927Z,-2.79
2022-12-18T00:42:47.975Z,-2.75
2022-12-18T00:45:18.466Z,-2.76
2022-12-18T00:47:50.341Z,-2.78
2022-12-18T00:50:21.225Z,-2.80
2022-12-18T00:52:52.229Z,-2.82
2022-12-18T00:55:22.698Z,-2.82
2022-12-18T00:57:54.614Z,-2.80
2022-12-18T01:00:25.595Z,-2.80
2022-12-18T01:02:56.110Z,-2.78
2022-12-18T01:05:27.125Z,-2.78
2022-12-18T01:07:58.986Z,-2.75
2022-12-18T01:10:29.527Z,-2.68
2022-12-18T01:13:01.484Z,-2.58
2022-12-18T01:15:32.598Z,-2.46
2022-12-18T01:18:03.164Z,-2.35
2022-12-18T01:20:33.658Z,-2.28
2022-12-18T01:23:04.090Z,-2.24
2022-12-18T01:25:34.534Z,-2.21
2022-12-18T01:28:05.390Z,-2.27
2022-12-18T01:30:36.438Z,-2.31
2022-12-18T01:33:07.561Z,-2.36
2022-12-18T01:35:44.870Z,-2.40
2022-12-18T01:38:15.285Z,-2.39
2022-12-18T01:40:45.728Z,-2.36
2022-12-18T01:43:16.437Z,-2.35
2022-12-18T01:45:47.134Z,-2.33
2022-12-18T01:48:17.703Z,-2.31
2022-12-18T01:50:48.827Z,-2.29
2022-12-18T01:53:25.430Z,-2.28
2022-12-18T01:55:58.515Z,-2.32
2022-12-18T01:58:37.641Z,-2.37
2022-12-18T02:01:08.570Z,-2.43
2022-12-18T02:03:39.425Z,-2.52
2022-12-18T02:06:15.967Z,-2.58
2022-12-18T02:08:57.179Z,-2.62
2022-12-18T02:11:41.857Z,-2.67
2022-12-18T02:14:23.233Z,-2.66
2022-12-18T02:17:01.862Z,-2.66
2022-12-18T02:19:47.133Z,-2.65
2022-12-18T02:22:32.189Z,-2.68
2022-12-18T02:25:21.575Z,-2.75
2022-12-18T02:27:54.127Z,-2.71
2022-12-18T02:30:25.722Z,-2.66
2022-12-18T02:32:58.124Z,-2.57
2022-12-18T02:35:31.566Z,-2.46
2022-12-18T02:38:03.823Z,-2.35
2022-12-18T02:40:35.066Z,-2.27
2022-12-18T02:43:11.202Z,-2.28
2022-12-18T02:45:50.978Z,-2.28
2022-12-18T02:48:26.733Z,-2.30
2022-12-18T02:51:06.467Z,-2.26
2022-12-18T02:53:43.462Z,-2.22
2022-12-18T02:56:20.651Z,-2.21
2022-12-18T02:58:58.357Z,-2.23
2022-12-18T03:01:52.097Z,-2.31
2022-12-18T03:04:29.116Z,-2.37
2022-12-18T03:07:03.528Z,-2.42
2022-12-18T03:09:37.885Z,-2.42
2022-12-18T03:12:25.615Z,-2.42
2022-12-18T03:15:05.401Z,-2.42
2022-12-18T03:17:37.427Z,-2.41
2022-12-18T03:20:14.580Z,-2.42
2022-12-18T03:22:48.849Z,-2.42
2022-12-18T03:25:21.171Z,-2.42
2022-12-18T03:27:58.852Z,-2.47
2022-12-18T03:30:33.318Z,-2.51
2022-12-18T03:33:09.244Z,-2.53
2022-12-18T03:35:43.866Z,-2.52
2022-12-18T03:38:15.652Z,-2.51
2022-12-18T03:40:58.344Z,-2.49
2022-12-18T03:43:42.655Z,-2.47
2022-12-18T03:46:22.556Z,-2.47
2022-12-18T03:49:00.131Z,-2.46
2022-12-18T03:51:39.799Z,-2.39
2022-12-18T03:54:12.568Z,-2.34
2022-12-18T03:56:53.660Z,-2.28
2022-12-18T03:59:27.051Z,-2.22
2022-12-18T04:02:01.164Z,-2.13
2022-12-18T04:04:33.144Z,-2.11
2022-12-18T04:07:05.584Z,-2.16
2022-12-18T04:09:40.349Z,-2.18
2022-12-18T04:12:13.176Z,-2.16
2022-12-18T04:14:44.519Z,-2.14
2022-12-18T04:17:17.740Z,-2.14
2022-12-18T04:19:48.694Z,-2.18
2022-12-18T04:22:19.729Z,-2.21
2022-12-18T04:24:51.774Z,-2.28
2022-12-18T04:27:28.746Z,-2.33
2022-12-18T04:29:59.430Z,-2.39
2022-12-18T04:32:29.857Z,-2.41
2022-12-18T04:35:00.336Z,-2.42
2022-12-18T04:37:30.817Z,-2.42
2022-12-18T04:40:01.925Z,-2.44
2022-12-18T04:42:37.824Z,-2.48
2022-12-18T04:45:10.953Z,-2.53
2022-12-18T04:47:41.466Z,-2.53
2022-12-18T04:50:12.811Z,-2.55
2022-12-18T04:52:43.237Z,-2.54
2022-12-18T04:55:13.733Z,-2.54
2022-12-18T04:57:44.189Z,-2.54
2022-12-18T05:00:16.431Z,-2.51
2022-12-18T05:02:47.039Z,-2.49
2022-12-18T05:05:17.848Z,-2.47
2022-12-18T05:07:48.261Z,-2.45
2022-12-18T05:10:18.946Z,-2.45
2022-12-18T05:13:02.254Z,-2.44
2022-12-18T05:15:34.463Z,-2.37
2022-12-18T05:18:06.400Z,-2.31
2022-12-18T05:20:36.837Z,-2.25
2022-12-18T05:23:07.283Z,-2.17
2022-12-18T05:25:37.739Z,-2.09
2022-12-18T05:28:08.280Z,-2.02
2022-12-18T05:30:38.680Z,-1.98
2022-12-18T05:33:09.138Z,-1.97
2022-12-18T05:35:39.703Z,-1.95
2022-12-18T05:38:10.137Z,-1.94
2022-12-18T05:40:43.221Z,-1.95
2022-12-18T05:43:19.370Z,-1.99
2022-12-18T05:45:52.164Z,-2.01
2022-12-18T05:48:23.412Z,-2.03
2022-12-18T05:50:54.248Z,-2.06
2022-12-18T05:53:24.671Z,-2.10
2022-12-18T05:55:55.207Z,-2.15
2022-12-18T05:58:25.944Z,-2.19
2022-12-18T06:00:56.436Z,-2.20
2022-12-18T06:03:32.194Z,-2.23
2022-12-18T06:06:04.583Z,-2.25
2022-12-18T06:08:35.000Z,-2.28
2022-12-18T06:11:05.613Z,-2.31
2022-12-18T06:13:36.288Z,-2.33
2022-12-18T06:16:09.013Z,-2.37
2022-12-18T06:18:39.705Z,-2.39
2022-12-18T06:21:10.335Z,-2.40
2022-12-18T06:23:41.153Z,-2.40
2022-12-18T06:26:14.056Z,-2.40
2022-12-18T06:28:45.113Z,-2.42
2022-12-18T06:31:15.974Z,-2.46
2022-12-18T06:33:46.463Z,-2.50
2022-12-18T06:36:18.064Z,-2.52
2022-12-18T06:38:48.649Z,-2.55
2022-12-18T06:41:21.618Z,-2.55
2022-12-18T06:43:56.781Z,-2.55
2022-12-18T06:46:28.700Z,-2.56
2022-12-18T06:48:59.275Z,-2.55
2022-12-18T06:51:29.713Z,-2.56
2022-12-18T06:54:00.246Z,-2.56
2022-12-18T06:56:31.286Z,-2.55
2022-12-18T06:59:01.698Z,-2.56
2022-12-18T07:01:32.215Z,-2.56
2022-12-18T07:04:02.907Z,-2.55
2022-12-18T07:06:33.401Z,-2.47
2022-12-18T07:09:04.290Z,-2.41
2022-12-18T07:11:36.085Z,-2.34
2022-12-18T07:14:06.587Z,-2.29
2022-12-18T07:16:37.054Z,-2.22
2022-12-18T07:19:07.807Z,-2.16
2022-12-18T07:21:38.231Z,-2.11
2022-12-18T07:24:09.992Z,-2.07
2022-12-18T07:26:41.373Z,-2.03
2022-12-18T07:29:11.776Z,-1.99
2022-12-18T07:31:42.594Z,-1.97
2022-12-18T07:34:16.008Z,-1.97
2022-12-18T07:36:46.503Z,-2.00
2022-12-18T07:39:17.339Z,-1.98
2022-12-18T07:42:08.844Z,-1.99
2022-12-18T07:44:39.935Z,-2.00
2022-12-18T07:47:12.295Z,-2.00
2022-12-18T07:49:43.114Z,-2.05
2022-12-18T07:52:13.631Z,-2.09
2022-12-18T07:54:44.173Z,-2.12
2022-12-18T07:57:41.401Z,-2.16
2022-12-18T08:00:05.506Z,-2.20
2022-12-18T08:02:42.857Z,-2.21
2022-12-18T08:05:14.454Z,-2.23
2022-12-18T08:07:44.985Z,-2.22
2022-12-18T08:10:15.610Z,-2.23
2022-12-18T08:12:46.407Z,-2.21
2022-12-18T08:15:16.941Z,-2.21
2022-12-18T08:17:47.359Z,-2.18
2022-12-18T08:20:19.476Z,-2.17
2022-12-18T08:22:50.106Z,-2.16
2022-12-18T08:25:20.634Z,-2.16
2022-12-18T08:27:51.094Z,-2.16
2022-12-18T08:30:21.988Z,-2.17
2022-12-18T08:32:55.845Z,-2.17
2022-12-18T08:35:26.341Z,-2.17
2022-12-18T08:37:56.739Z,-2.15
2022-12-18T08:40:27.295Z,-2.13
2022-12-18T08:43:15.376Z,-2.12
2022-12-18T08:45:46.028Z,-2.11
2022-12-18T08:48:21.887Z,-2.10
2022-12-18T08:50:59.280Z,-2.09
2022-12-18T08:53:35.360Z,-2.08
2022-12-18T08:56:07.603Z,-2.07
2022-12-18T08:58:38.052Z,-2.05
2022-12-18T09:01:10.986Z,-2.03
2022-12-18T09:03:42.195Z,-1.99
2022-12-18T09:06:17.955Z,-1.95
2022-12-18T09:08:48.794Z,-1.94
2022-12-18T09:11:23.843Z,-1.92
2022-12-18T09:13:55.181Z,-1.88
2022-12-18T09:16:32.330Z,-1.86
2022-12-18T09:19:03.922Z,-1.82
2022-12-18T09:21:37.162Z,-1.81
2022-12-18T09:24:13.303Z,-1.78
2022-12-18T09:26:47.411Z,-1.74
2022-12-18T09:29:18.972Z,-1.71
2022-12-18T09:31:50.595Z,-1.69
2022-12-18T09:34:22.795Z,-1.67
2022-12-18T09:36:53.823Z,-1.62
2022-12-18T09:39:25.053Z,-1.55
2022-12-18T09:41:58.279Z,-1.49
2022-12-18T09:44:32.310Z,-1.39
2022-12-18T09:47:13.668Z,-1.29
2022-12-18T09:49:47.227Z,-1.23
2022-12-18T09:52:23.919Z,-1.18
2022-12-18T09:54:59.161Z,-1.14
2022-12-18T09:57:33.057Z,-1.14
2022-12-18T10:00:13.773Z,-1.15
2022-12-18T10:02:45.553Z,-1.21
2022-12-18T10:05:18.374Z,-1.23
2022-12-18T10:07:57.282Z,-1.23
2022-12-18T10:10:36.452Z,-1.27
2022-12-18T10:13:09.523Z,-1.31
2022-12-18T10:15:49.182Z,-1.35
2022-12-18T10:18:32.182Z,-1.38
2022-12-18T10:21:12.521Z,-1.42
2022-12-18T10:23:48.381Z,-1.45
2022-12-18T10:26:19.278Z,-1.48
2022-12-18T10:28:50.369Z,-1.48
2022-12-18T10:31:24.677Z,-1.48
2022-12-18T10:33:57.077Z,-1.52
2022-12-18T10:36:27.203Z,-1.55
2022-12-18T10:39:15.752Z,-1.56
2022-12-18T10:41:46.308Z,-1.60
2022-12-18T10:44:21.257Z,-1.62
2022-12-18T10:46:56.928Z,-1.64
2022-12-18T10:49:30.881Z,-1.67
2022-12-18T10:52:20.996Z,-1.67
2022-12-18T10:54:54.152Z,-1.67
2022-12-18T10:57:39.026Z,-1.66
2022-12-18T11:03:26.688Z,-1.60
2022-12-18T11:06:06.386Z,-1.59
2022-12-18T11:08:37.710Z,-1.58
2022-12-18T11:11:18.211Z,-1.56
2022-12-18T11:14:00.406Z,-1.55
2022-12-18T11:16:32.863Z,-1.51
2022-12-18T11:19:22.279Z,-1.49
2022-12-18T11:21:54.022Z,-1.49
2022-12-18T11:24:30.216Z,-1.51
2022-12-18T11:27:03.321Z,-1.50
2022-12-18T11:29:40.718Z,-1.48
2022-12-18T11:32:36.105Z,-1.48
2022-12-18T11:35:17.004Z,-1.48
2022-12-18T11:37:55.382Z,-1.48
2022-12-18T11:40:36.499Z,-1.48
2022-12-18T11:43:16.845Z,-1.44
2022-12-18T11:45:55.237Z,-1.43
2022-12-18T11:48:29.642Z,-1.46
2022-12-18T11:51:02.352Z,-1.47
2022-12-18T11:53:33.528Z,-1.45
2022-12-18T11:56:18.489Z,-1.41
2022-12-18T11:58:54.001Z,-1.36
2022-12-18T12:01:43.817Z,-1.32
2022-12-18T12:04:43.707Z,-1.27
2022-12-18T12:07:27.346Z,-1.24
2022-12-18T12:10:10.567Z,-1.21
2022-12-18T12:12:55.542Z,-1.20
2022-12-18T12:15:41.115Z,-1.21
2022-12-18T12:18:25.968Z,-1.27
2022-12-18T12:21:05.634Z,-1.33
2022-12-18T12:23:44.586Z,-1.35
2022-12-18T12:26:24.243Z,-1.35
2022-12-18T12:29:04.037Z,-1.35
2022-12-18T12:31:51.207Z,-1.35
2022-12-18T12:34:25.101Z,-1.37
2022-12-18T12:37:10.262Z,-1.39
2022-12-18T12:39:43.817Z,-1.41
2022-12-18T12:42:34.690Z,-1.41
2022-12-18T12:45:08.822Z,-1.40
2022-12-18T12:47:44.334Z,-1.35
2022-12-18T12:50:21.185Z,-1.31
2022-12-18T12:52:56.866Z,-1.32
2022-12-18T12:55:29.909Z,-1.35
2022-12-18T12:58:10.718Z,-1.39
2022-12-18T13:00:48.682Z,-1.45
2022-12-18T13:03:41.968Z,-1.51
2022-12-18T13:06:20.635Z,-1.53
2022-12-18T13:08:58.982Z,-1.53
2022-12-18T13:12:00.580Z,-1.55
2022-12-18T13:14:35.321Z,-1.52
2022-12-18T13:17:31.949Z,-1.47
2022-12-18T13:20:15.578Z,-1.43
2022-12-18T13:22:49.991Z,-1.37
2022-12-18T13:25:35.746Z,-1.32
2022-12-18T13:28:15.388Z,-1.25
2022-12-18T13:30:53.846Z,-1.23
2022-12-18T13:34:09.447Z,-1.22
2022-12-18T13:36:36.349Z,-1.20
2022-12-18T13:39:35.222Z,-1.22
2022-12-18T13:42:58.521Z,-1.26
2022-12-18T13:45:48.028Z,-1.29
2022-12-18T13:48:25.075Z,-1.31
2022-12-18T13:51:03.085Z,-1.34
2022-12-18T13:53:39.501Z,-1.42
2022-12-18T13:56:10.645Z,-1.49
2022-12-18T13:58:41.417Z,-1.57
2022-12-18T14:01:25.709Z,-1.67
2022-12-18T14:04:19.827Z,-1.78
2022-12-18T14:06:51.540Z,-1.87
2022-12-18T14:09:27.275Z,-1.96
2022-12-18T14:12:13.666Z,-2.02
2022-12-18T14:14:49.210Z,-2.09
2022-12-18T14:17:22.622Z,-2.13
2022-12-18T14:19:54.820Z,-2.14
2022-12-18T14:22:30.676Z,-2.19
2022-12-18T14:25:18.987Z,-2.25
2022-12-18T14:27:53.125Z,-2.33
2022-12-18T14:30:34.443Z,-2.37
2022-12-18T14:33:10.642Z,-2.43
2022-12-18T14:35:42.860Z,-2.50
2022-12-18T14:38:26.055Z,-2.54
2022-12-18T14:41:02.039Z,-2.58
2022-12-18T14:43:35.088Z,-2.66
2022-12-18T14:46:07.734Z,-2.72
2022-12-18T14:48:43.765Z,-2.77
2022-12-18T14:51:21.865Z,-2.81
2022-12-18T14:53:57.857Z,-2.85
2022-12-18T14:56:31.595Z,-2.80
2022-12-18T14:59:04.493Z,-2.76
2022-12-18T15:01:35.461Z,-2.73
2022-12-18T15:04:25.256Z,-2.70
2022-12-18T15:07:10.993Z,-2.62
2022-12-18T15:09:50.187Z,-2.57
2022-12-18T15:12:35.298Z,-2.56
2022-12-18T15:15:07.651Z,-2.57
2022-12-18T15:17:39.172Z,-2.57
2022-12-18T15:20:15.200Z,-2.58
2022-12-18T15:22:49.314Z,-2.61
2022-12-18T15:25:31.609Z,-2.62
2022-12-18T15:28:02.237Z,-2.63
2022-12-18T15:30:33.113Z,-2.66
2022-12-18T15:33:25.791Z,-2.70
2022-12-18T15:36:01.975Z,-2.76
2022-12-18T15:38:33.169Z,-2.82
2022-12-18T15:41:04.406Z,-2.86
2022-12-18T15:43:38.424Z,-2.90
2022-12-18T15:46:13.109Z,-2.94
2022-12-18T15:48:45.203Z,-3.01
2022-12-18T15:51:21.007Z,-3.04
2022-12-18T15:53:56.008Z,-3.08
2022-12-18T15:56:44.538Z,-3.14
2022-12-18T15:59:17.536Z,-3.19
2022-12-18T16:01:48.829Z,-3.22
2022-12-18T16:04:21.707Z,-3.27
2022-12-18T16:09:43.817Z,-3.32
2022-12-18T16:12:20.186Z,-3.36
2022-12-18T16:14:50.658Z,-3.41
2022-12-18T16:17:22.047Z,-3.44
2022-12-18T16:19:52.585Z,-3.46
2022-12-18T16:22:26.071Z,-3.50
2022-12-18T16:24:58.127Z,-3.54
2022-12-18T16:27:28.966Z,-3.58
2022-12-18T16:29:59.576Z,-3.61
2022-12-18T16:32:30.124Z,-3.63
2022-12-18T16:35:04.659Z,-3.66
2022-12-18T16:37:35.145Z,-3.69
2022-12-18T16:40:06.718Z,-3.65
2022-12-18T16:42:38.075Z,-3.63
2022-12-18T16:45:10.838Z,-3.62
2022-12-18T16:47:41.653Z,-3.61
2022-12-18T16:50:13.519Z,-3.60
2022-12-18T16:52:44.205Z,-3.58
2022-12-18T16:55:14.658Z,-3.60
2022-12-18T16:57:45.165Z,-3.63
2022-12-18T17:00:18.263Z,-3.65
2022-12-18T17:02:48.921Z,-3.69
2022-12-18T17:05:19.914Z,-3.73
2022-12-18T17:07:50.660Z,-3.78
2022-12-18T17:10:21.223Z,-3.83
2022-12-18T17:12:53.485Z,-3.87
2022-12-18T17:15:23.947Z,-3.91
2022-12-18T17:17:54.369Z,-3.97
2022-12-18T17:20:26.560Z,-4.03
2022-12-18T17:22:57.012Z,-4.08
2022-12-18T17:25:28.667Z,-4.14
2022-12-18T17:27:59.067Z,-4.19
2022-12-18T17:30:30.752Z,-4.24
2022-12-18T17:33:01.179Z,-4.29
2022-12-18T17:35:31.689Z,-4.34
2022-12-18T17:38:02.127Z,-4.38
2022-12-18T17:40:35.118Z,-4.41
2022-12-18T17:43:04.511Z,-4.46
2022-12-18T17:45:38.417Z,-4.50
2022-12-18T17:48:10.400Z,-4.53
2022-12-18T17:50:41.016Z,-4.58
2022-12-18T17:53:11.971Z,-4.61
2022-12-18T17:55:42.522Z,-4.64
2022-12-18T17:58:13.031Z,-4.67
2022-12-18T18:00:43.468Z,-4.71
2022-12-18T18:03:14.133Z,-4.74
2022-12-18T18:05:44.816Z,-4.77
2022-12-18T18:08:15.354Z,-4.81
2022-12-18T18:10:48.949Z,-4.83
2022-12-18T18:13:46.442Z,-4.84
2022-12-18T18:16:17.549Z,-4.76
2022-12-18T18:18:48.091Z,-4.72
2022-12-18T18:21:18.528Z,-4.68
2022-12-18T18:23:50.014Z,-4.63
2022-12-18T18:26:23.476Z,-4.59
2022-12-18T18:28:57.978Z,-4.54
2022-12-18T18:31:29.965Z,-4.50
2022-12-18T18:34:00.436Z,-4.50
2022-12-18T18:36:31.164Z,-4.49
2022-12-18T18:39:02.465Z,-4.49
2022-12-18T18:41:33.001Z,-4.50
2022-12-18T18:44:03.448Z,-4.53
2022-12-18T18:46:34.363Z,-4.57
2022-12-18T18:49:05.814Z,-4.60
2022-12-18T18:51:36.339Z,-4.63
2022-12-18T18:54:07.174Z,-4.68
2022-12-18T18:59:31.219Z,-4.81
2022-12-18T19:02:04.225Z,-4.86
2022-12-18T19:04:37.488Z,-4.93
2022-12-18T19:07:13.619Z,-4.99
2022-12-18T19:09:52.083Z,-5.04
2022-12-18T19:12:40.041Z,-5.08
2022-12-18T19:15:12.399Z,-5.13
2022-12-18T19:17:44.819Z,-5.19
2022-12-18T19:20:18.367Z,-5.23
2022-12-18T19:22:55.388Z,-5.26
2022-12-18T19:25:38.676Z,-5.30
2022-12-18T19:28:21.454Z,-5.33
2022-12-18T19:30:57.301Z,-5.35
2022-12-18T19:33:43.108Z,-5.36
2022-12-18T19:36:18.446Z,-5.39
2022-12-18T19:38:49.816Z,-5.42
2022-12-18T19:41:21.501Z,-5.40
2022-12-18T19:43:52.797Z,-5.35
2022-12-18T19:46:24.395Z,-5.32
2022-12-18T19:48:55.184Z,-5.28
2022-12-18T19:51:28.131Z,-5.25
2022-12-18T19:54:01.427Z,-5.22
2022-12-18T19:56:34.761Z,-5.17
2022-12-18T19:59:06.214Z,-5.13
2022-12-18T20:01:36.769Z,-5.08
2022-12-18T20:04:07.633Z,-5.08
2022-12-18T20:06:47.530Z,-5.07
2022-12-18T20:09:19.161Z,-5.08
2022-12-18T20:11:49.708Z,-5.09
2022-12-18T20:14:21.172Z,-5.11
2022-12-18T20:16:54.301Z,-5.16
2022-12-18T20:19:27.648Z,-5.20
2022-12-18T20:21:58.363Z,-5.25
2022-12-18T20:24:30.043Z,-5.28
2022-12-18T20:27:00.666Z,-5.33
2022-12-18T20:29:32.239Z,-5.35
2022-12-18T20:32:02.764Z,-5.34
2022-12-18T20:34:33.492Z,-5.37
2022-12-18T20:37:04.596Z,-5.40
2022-12-18T20:39:35.781Z,-5.44
2022-12-18T20:42:06.988Z,-5.48
2022-12-18T20:44:37.484Z,-5.52
2022-12-18T20:47:08.833Z,-5.57
2022-12-18T20:49:39.844Z,-5.60
2022-12-18T20:52:14.746Z,-5.65
2022-12-18T20:54:45.213Z,-5.69
2022-12-18T20:57:15.939Z,-5.70
2022-12-18T20:59:48.451Z,-5.64
2022-12-18T21:02:23.306Z,-5.60
2022-12-18T21:04:54.792Z,-5.56
2022-12-18T21:07:27.407Z,-5.52
2022-12-18T21:09:57.918Z,-5.46
2022-12-18T21:12:42.645Z,-5.41
2022-12-18T21:15:28.921Z,-5.36
2022-12-18T21:17:59.546Z,-5.32
2022-12-18T21:20:30.005Z,-5.32
2022-12-18T21:23:08.571Z,-5.32
2022-12-18T21:25:46.699Z,-5.31
2022-12-18T21:28:20.259Z,-5.30
2022-12-18T21:30:51.124Z,-5.32
2022-12-18T21:33:21.677Z,-5.34
2022-12-18T21:35:52.255Z,-5.38
2022-12-18T21:38:22.692Z,-5.41
2022-12-18T21:40:53.416Z,-5.44
2022-12-18T21:43:41.343Z,-5.46
2022-12-18T21:46:11.969Z,-5.48
2022-12-18T21:48:43.541Z,-5.51
2022-12-18T21:51:13.975Z,-5.52
2022-12-18T21:53:44.424Z,-5.55
2022-12-18T21:56:16.931Z,-5.56
2022-12-18T21:58:57.060Z,-5.58
2022-12-18T22:01:30.597Z,-5.58
2022-12-18T22:04:08.333Z,-5.61
2022-12-18T22:06:38.974Z,-5.64
2022-12-18T22:09:10.438Z,-5.67
2022-12-18T22:11:41.138Z,-5.69
2022-12-18T22:14:12.118Z,-5.63
2022-12-18T22:16:43.026Z,-5.57
2022-12-18T22:19:14.930Z,-5.52
2022-12-18T22:21:47.053Z,-5.47
2022-12-18T22:24:19.678Z,-5.42
2022-12-18T22:26:52.986Z,-5.38
2022-12-18T22:29:44.906Z,-5.33
2022-12-18T22:32:17.217Z,-5.24
2022-12-18T22:35:05.226Z,-5.19
2022-12-18T22:37:37.574Z,-5.17
2022-12-18T22:40:12.865Z,-5.19
2022-12-18T22:42:44.255Z,-5.22
2022-12-18T22:45:15.588Z,-5.25
2022-12-18T22:47:46.111Z,-5.30
2022-12-18T22:50:16.998Z,-5.37
2022-12-18T22:52:47.456Z,-5.41
2022-12-18T22:55:18.357Z,-5.46
2022-12-18T22:57:50.257Z,-5.54
2022-12-18T23:00:24.242Z,-5.61
2022-12-18T23:03:00.283Z,-5.66
2022-12-18T23:05:32.428Z,-5.71
2022-12-18T23:08:03.154Z,-5.76
2022-12-18T23:10:33.850Z,-5.81
2022-12-18T23:13:04.618Z,-5.87
2022-12-18T23:15:35.115Z,-5.91
2022-12-18T23:18:05.790Z,-5.95
2022-12-18T23:20:39.043Z,-5.98
2022-12-18T23:23:10.594Z,-5.92
2022-12-18T23:25:41.472Z,-5.89
2022-12-18T23:28:12.308Z,-5.86
2022-12-18T23:30:43.144Z,-5.82
2022-12-18T23:33:13.980Z,-5.79
2022-12-18T23:35:45.330Z,-5.74
2022-12-18T23:38:16.167Z,-5.69
2022-12-18T23:40:47.005Z,-5.66
2022-12-18T23:43:19.178Z,-5.63
2022-12-18T23:45:55.340Z,-5.63
2022-12-18T23:48:26.581Z,-5.64
2022-12-18T23:50:57.420Z,-5.65
2022-12-18T23:53:29.278Z,-5.68
2022-12-18T23:56:01.140Z,-5.71
2022-12-18T23:58:31.978Z,-5.75
